createdAt,value
2018-01-25T00:01:10.045Z,74.18
2018-01-25T00:03:37.452Z,74.38
2018-01-25T00:06:04.877Z,74.59
2018-01-25T00:08:32.286Z,74.22
2018-01-25T00:10:59.701Z,74.34
2018-01-25T00:13:27.122Z,74.85
2018-01-25T00:15:54.534Z,74.34
2018-01-25T00:18:21.940Z,75.24
2018-01-25T00:20:49.371Z,75.57
2018-01-25T00:23:16.785Z,77.13
2018-01-25T00:25:44.197Z,77.89
2018-01-25T00:28:11.620Z,78.76
2018-01-25T00:30:39.029Z,78.61
2018-01-25T00:33:06.445Z,79.71
2018-01-25T00:35:33.876Z,80.30
2018-01-25T00:38:01.289Z,81.05
2018-01-25T00:40:28.706Z,82.54
2018-01-25T00:42:56.124Z,83.27
2018-01-25T00:45:23.564Z,84.04
2018-01-25T00:47:50.973Z,85.38
2018-01-25T00:50:18.394Z,85.35
2018-01-25T00:52:45.802Z,85.88
2018-01-25T00:55:13.214Z,86.46
2018-01-25T00:57:40.637Z,86.91
2018-01-25T01:00:08.079Z,87.25
2018-01-25T01:02:35.489Z,88.14
2018-01-25T01:05:02.917Z,88.90
2018-01-25T01:07:30.322Z,89.25
2018-01-25T01:09:57.738Z,89.56
2018-01-25T01:12:25.164Z,90.15
2018-01-25T01:14:52.577Z,90.52
2018-01-25T01:17:19.980Z,91.04
2018-01-25T01:19:47.402Z,91.42
2018-01-25T01:22:14.817Z,91.79
2018-01-25T01:24:42.232Z,91.90
2018-01-25T01:27:09.652Z,92.28
2018-01-25T01:29:37.056Z,92.46
2018-01-25T01:32:04.465Z,92.65
2018-01-25T01:34:31.901Z,93.59
2018-01-25T01:36:59.316Z,93.82
2018-01-25T01:39:26.724Z,92.31
2018-01-25T01:41:54.152Z,93.21
2018-01-25T01:44:21.562Z,93.85
2018-01-25T01:46:48.972Z,94.88
2018-01-25T01:49:16.398Z,95.14
2018-01-25T01:51:43.821Z,95.28
2018-01-25T01:54:11.232Z,95.50
2018-01-25T01:56:38.666Z,95.33
2018-01-25T01:59:06.085Z,95.33
2018-01-25T02:01:33.504Z,95.69
2018-01-25T02:04:00.933Z,95.79
2018-01-25T02:06:28.337Z,96.07
2018-01-25T02:08:55.745Z,95.92
2018-01-25T02:11:23.169Z,95.47
2018-01-25T02:13:50.582Z,94.97
2018-01-25T02:16:18.004Z,95.25
2018-01-25T02:18:45.437Z,95.62
2018-01-25T02:21:12.848Z,95.61
2018-01-25T02:23:40.269Z,96.30
2018-01-25T02:26:07.702Z,96.07
2018-01-25T02:28:35.107Z,96.16
2018-01-25T02:31:02.536Z,96.26
2018-01-25T02:33:29.961Z,96.40
2018-01-25T02:35:57.382Z,96.08
2018-01-25T02:38:24.792Z,96.17
2018-01-25T02:40:52.266Z,96.35
2018-01-25T02:43:19.677Z,96.41
2018-01-25T02:45:47.090Z,96.29
2018-01-25T02:48:14.508Z,96.51
2018-01-25T02:50:41.920Z,96.69
2018-01-25T02:53:09.329Z,96.91
2018-01-25T02:55:36.752Z,96.99
2018-01-25T02:58:04.172Z,96.86
2018-01-25T03:00:31.589Z,96.82
2018-01-25T03:02:59.029Z,96.73
2018-01-25T03:05:26.437Z,96.75
2018-01-25T03:07:53.857Z,97.29
2018-01-25T03:10:21.277Z,97.42
2018-01-25T03:12:48.684Z,97.44
2018-01-25T03:15:16.096Z,97.90
2018-01-25T03:17:43.518Z,97.73
2018-01-25T03:20:10.933Z,97.81
2018-01-25T03:22:38.344Z,97.77
2018-01-25T03:25:05.777Z,97.19
2018-01-25T03:27:33.194Z,97.71
2018-01-25T03:30:00.641Z,97.79
2018-01-25T03:32:28.084Z,97.47
2018-01-25T03:34:55.492Z,97.49
2018-01-25T03:37:22.904Z,97.20
2018-01-25T03:39:50.321Z,97.22
2018-01-25T03:42:17.737Z,97.37
2018-01-25T03:44:45.137Z,97.25
2018-01-25T03:47:12.561Z,97.36
2018-01-25T03:49:39.976Z,97.49
2018-01-25T03:52:07.385Z,97.30
2018-01-25T03:54:34.813Z,97.23
2018-01-25T03:57:02.226Z,97.35
2018-01-25T03:59:29.629Z,97.35
2018-01-25T04:01:57.052Z,97.41
2018-01-25T04:04:24.469Z,97.32
2018-01-25T04:06:51.873Z,96.88
2018-01-25T04:09:19.305Z,96.51
2018-01-25T04:11:46.710Z,96.56
2018-01-25T04:14:14.173Z,95.71
2018-01-25T04:16:41.588Z,96.26
2018-01-25T04:19:08.993Z,96.20
2018-01-25T04:21:36.400Z,96.37
2018-01-25T04:24:03.837Z,96.23
2018-01-25T04:26:31.245Z,95.92
2018-01-25T04:28:58.661Z,95.31
2018-01-25T04:31:26.081Z,95.40
2018-01-25T04:33:53.488Z,95.83
2018-01-25T04:36:20.896Z,95.58
2018-01-25T04:38:48.325Z,95.74
2018-01-25T04:41:15.757Z,95.53
2018-01-25T04:43:43.165Z,95.29
2018-01-25T04:46:10.585Z,95.66
2018-01-25T04:48:37.996Z,95.71
2018-01-25T04:51:05.396Z,95.71
2018-01-25T04:53:32.821Z,95.69
2018-01-25T04:56:00.224Z,95.07
2018-01-25T04:58:27.633Z,95.28
2018-01-25T05:00:55.049Z,95.60
2018-01-25T05:03:22.458Z,95.69
2018-01-25T05:05:49.865Z,95.77
2018-01-25T05:08:17.293Z,95.98
2018-01-25T05:10:44.704Z,95.62
2018-01-25T05:13:12.117Z,95.92
2018-01-25T05:15:39.549Z,96.09
2018-01-25T05:18:06.957Z,96.16
2018-01-25T05:20:34.362Z,96.09
2018-01-25T05:23:01.785Z,96.14
2018-01-25T05:25:29.197Z,96.21
2018-01-25T05:27:56.608Z,96.20
2018-01-25T05:30:24.029Z,96.21
2018-01-25T05:32:51.437Z,96.29
2018-01-25T05:35:18.852Z,96.34
2018-01-25T05:37:46.286Z,96.27
2018-01-25T05:40:13.693Z,96.27
2018-01-25T05:42:41.102Z,96.24
2018-01-25T05:45:08.526Z,96.28
2018-01-25T05:47:35.937Z,94.98
2018-01-25T05:50:03.345Z,95.19
2018-01-25T05:52:30.765Z,95.52
2018-01-25T05:54:58.180Z,95.75
2018-01-25T05:57:25.604Z,95.80
2018-01-25T05:59:53.044Z,95.78
2018-01-25T06:02:20.448Z,95.86
2018-01-25T06:04:47.856Z,95.86
2018-01-25T06:07:15.285Z,95.78
2018-01-25T06:09:42.705Z,95.78
2018-01-25T06:12:10.101Z,95.63
2018-01-25T06:14:37.521Z,95.43
2018-01-25T06:17:04.929Z,95.71
2018-01-25T06:19:32.357Z,95.92
2018-01-25T06:21:59.784Z,95.85
2018-01-25T06:24:27.201Z,95.78
2018-01-25T06:26:54.604Z,96.00
2018-01-25T06:29:22.045Z,95.43
2018-01-25T06:31:49.461Z,95.79
2018-01-25T06:34:16.878Z,95.94
2018-01-25T06:36:44.302Z,96.14
2018-01-25T06:39:11.709Z,96.22
2018-01-25T06:41:39.120Z,96.22
2018-01-25T06:44:06.549Z,96.21
2018-01-25T06:46:33.964Z,96.32
2018-01-25T06:49:01.382Z,96.43
2018-01-25T06:51:28.796Z,96.37
2018-01-25T06:53:56.202Z,96.35
2018-01-25T06:56:23.638Z,96.21
2018-01-25T06:58:51.104Z,96.07
2018-01-25T07:01:18.529Z,96.03
2018-01-25T07:03:46.384Z,96.15
2018-01-25T07:06:13.805Z,96.36
2018-01-25T07:08:41.269Z,96.42
2018-01-25T07:11:08.677Z,96.42
2018-01-25T07:13:36.130Z,96.58
2018-01-25T07:16:03.532Z,96.54
2018-01-25T07:18:30.979Z,96.58
2018-01-25T07:20:58.409Z,96.65
2018-01-25T07:23:25.880Z,96.71
2018-01-25T07:25:53.285Z,96.64
2018-01-25T07:28:20.713Z,96.55
2018-01-25T07:30:48.125Z,96.64
2018-01-25T07:33:15.573Z,96.59
2018-01-25T07:35:43.001Z,96.70
2018-01-25T07:38:10.412Z,96.72
2018-01-25T07:40:37.835Z,96.70
2018-01-25T07:43:05.253Z,96.72
2018-01-25T07:45:32.661Z,96.82
2018-01-25T07:48:00.069Z,96.80
2018-01-25T07:50:27.492Z,96.67
2018-01-25T07:52:54.901Z,96.80
2018-01-25T07:55:22.308Z,96.91
2018-01-25T08:00:54.432Z,96.76
2018-01-25T08:03:21.860Z,96.82
2018-01-25T08:05:49.281Z,96.81
2018-01-25T08:08:16.694Z,96.86
2018-01-25T08:10:44.125Z,96.82
2018-01-25T08:13:17.248Z,96.79
2018-01-25T08:15:44.671Z,96.78
2018-01-25T08:18:12.078Z,96.66
2018-01-25T08:20:39.480Z,96.72
2018-01-25T08:23:06.914Z,96.84
2018-01-25T08:25:34.337Z,96.90
2018-01-25T08:28:02.137Z,96.86
2018-01-25T08:30:29.568Z,96.07
2018-01-25T08:32:56.976Z,96.29
2018-01-25T08:35:24.388Z,96.41
2018-01-25T08:37:51.811Z,96.49
2018-01-25T08:40:19.217Z,96.45
2018-01-25T08:42:46.638Z,96.54
2018-01-25T08:45:14.085Z,96.56
2018-01-25T08:47:41.491Z,96.60
2018-01-25T08:50:08.907Z,96.53
2018-01-25T08:52:36.329Z,96.64
2018-01-25T08:55:03.808Z,96.55
2018-01-25T08:57:31.204Z,96.49
2018-01-25T08:59:58.628Z,96.64
2018-01-25T09:02:26.041Z,96.55
2018-01-25T09:04:53.445Z,96.64
2018-01-25T09:07:20.924Z,96.58
2018-01-25T09:09:48.367Z,96.53
2018-01-25T09:12:15.778Z,96.42
2018-01-25T09:14:43.220Z,96.39
2018-01-25T09:17:10.626Z,96.34
2018-01-25T09:19:38.441Z,96.16
2018-01-25T09:22:05.863Z,96.26
2018-01-25T09:24:33.277Z,96.33
2018-01-25T09:27:00.697Z,96.15
2018-01-25T09:29:28.124Z,96.45
2018-01-25T09:31:55.533Z,96.58
2018-01-25T09:34:22.941Z,96.48
2018-01-25T09:36:50.384Z,96.46
2018-01-25T09:39:17.814Z,96.66
2018-01-25T09:41:45.226Z,96.64
2018-01-25T09:44:12.648Z,96.59
2018-01-25T09:46:40.073Z,96.65
2018-01-25T09:49:07.486Z,96.51
2018-01-25T09:51:34.936Z,96.54
2018-01-25T09:54:02.345Z,96.65
2018-01-25T09:56:30.029Z,96.38
2018-01-25T09:58:57.448Z,96.33
2018-01-25T10:01:24.869Z,96.14
2018-01-25T10:03:52.288Z,96.29
2018-01-25T10:06:19.724Z,96.12
2018-01-25T10:08:47.136Z,95.94
2018-01-25T10:11:14.835Z,95.88
2018-01-25T10:13:42.257Z,95.50
2018-01-25T10:16:09.714Z,95.06
2018-01-25T10:18:37.130Z,95.47
2018-01-25T10:21:04.568Z,95.71
2018-01-25T10:23:31.992Z,95.78
2018-01-25T10:25:59.408Z,95.71
2018-01-25T10:28:26.845Z,95.64
2018-01-25T10:30:54.277Z,95.45
2018-01-25T10:33:21.688Z,94.45
2018-01-25T10:35:49.117Z,94.28
2018-01-25T10:38:16.533Z,94.52
2018-01-25T10:40:43.954Z,94.74
2018-01-25T10:43:11.381Z,94.90
2018-01-25T10:45:38.808Z,94.96
2018-01-25T10:48:06.231Z,93.78
2018-01-25T10:50:33.676Z,93.44
2018-01-25T10:53:01.092Z,93.76
2018-01-25T10:55:28.516Z,94.28
2018-01-25T10:57:55.945Z,94.16
2018-01-25T11:00:23.364Z,94.10
2018-01-25T11:02:50.796Z,94.06
2018-01-25T11:05:18.240Z,93.34
2018-01-25T11:07:45.657Z,93.36
2018-01-25T11:10:13.102Z,93.32
2018-01-25T11:12:40.531Z,93.41
2018-01-25T11:15:07.936Z,93.33
2018-01-25T11:17:35.383Z,93.71
2018-01-25T11:20:02.817Z,93.66
2018-01-25T11:22:30.228Z,93.79
2018-01-25T11:24:57.658Z,93.69
2018-01-25T11:27:25.079Z,93.84
2018-01-25T11:29:52.516Z,93.49
2018-01-25T11:32:19.946Z,93.69
2018-01-25T11:34:47.382Z,93.88
2018-01-25T11:37:14.808Z,93.40
2018-01-25T11:39:42.225Z,93.66
2018-01-25T11:42:09.670Z,93.19
2018-01-25T11:44:37.089Z,93.25
2018-01-25T11:47:04.536Z,93.51
2018-01-25T11:49:32.006Z,93.73
2018-01-25T11:51:59.426Z,93.53
2018-01-25T11:54:26.849Z,93.45
2018-01-25T11:56:54.295Z,91.67
2018-01-25T11:59:21.710Z,92.73
2018-01-25T12:01:49.145Z,92.83
2018-01-25T12:04:16.569Z,92.26
2018-01-25T12:06:43.996Z,92.75
2018-01-25T12:09:11.428Z,92.55
2018-01-25T12:11:38.872Z,92.81
2018-01-25T12:14:06.332Z,92.10
2018-01-25T12:16:33.725Z,91.60
2018-01-25T12:19:01.163Z,91.76
2018-01-25T12:21:28.572Z,92.18
2018-01-25T12:23:55.985Z,92.45
2018-01-25T12:26:23.409Z,92.20
2018-01-25T12:28:50.828Z,91.80
2018-01-25T12:31:18.297Z,92.22
2018-01-25T12:33:45.723Z,92.17
2018-01-25T12:36:13.219Z,92.49
2018-01-25T12:38:40.644Z,92.34
2018-01-25T12:41:08.064Z,92.29
2018-01-25T12:43:35.493Z,92.64
2018-01-25T12:46:02.932Z,92.64
2018-01-25T12:48:30.368Z,92.91
2018-01-25T12:50:57.796Z,93.21
2018-01-25T12:53:25.216Z,93.22
2018-01-25T12:55:52.700Z,92.69
2018-01-25T12:58:20.105Z,93.08
2018-01-25T13:00:47.516Z,93.60
2018-01-25T13:03:14.962Z,93.51
2018-01-25T13:05:42.373Z,93.31
2018-01-25T13:08:09.808Z,93.33
2018-01-25T13:10:37.309Z,93.00
2018-01-25T13:13:04.765Z,92.60
2018-01-25T13:15:32.209Z,92.68
2018-01-25T13:17:59.648Z,93.15
2018-01-25T13:20:27.070Z,92.03
2018-01-25T13:22:54.502Z,92.44
2018-01-25T13:25:21.910Z,92.63
2018-01-25T13:27:49.325Z,91.42
2018-01-25T13:30:16.742Z,91.91
2018-01-25T13:32:44.201Z,92.18
2018-01-25T13:35:11.616Z,92.39
2018-01-25T13:37:39.026Z,92.81
2018-01-25T13:40:06.466Z,92.37
2018-01-25T13:42:33.872Z,92.71
2018-01-25T13:45:01.285Z,92.02
2018-01-25T13:47:28.700Z,92.36
2018-01-25T13:49:56.112Z,92.22
2018-01-25T13:52:29.257Z,92.17
2018-01-25T13:54:56.708Z,91.94
2018-01-25T13:57:24.193Z,92.14
2018-01-25T13:59:51.614Z,92.31
2018-01-25T14:02:19.040Z,91.66
2018-01-25T14:04:46.466Z,91.29
2018-01-25T14:07:13.914Z,91.94
2018-01-25T14:09:41.369Z,92.12
2018-01-25T14:12:08.805Z,92.39
2018-01-25T14:14:36.294Z,92.50
2018-01-25T14:17:03.704Z,92.41
2018-01-25T14:19:31.273Z,91.75
2018-01-25T14:21:58.757Z,91.80
2018-01-25T14:24:26.177Z,91.68
2018-01-25T14:26:53.597Z,92.01
2018-01-25T14:29:21.045Z,92.10
2018-01-25T14:31:48.507Z,92.29
2018-01-25T14:34:16.058Z,92.30
2018-01-25T14:36:43.473Z,92.36
2018-01-25T14:39:10.912Z,92.41
2018-01-25T14:41:38.349Z,92.00
2018-01-25T14:44:05.768Z,92.06
2018-01-25T14:46:33.601Z,92.13
2018-01-25T14:49:01.013Z,92.41
2018-01-25T14:51:28.440Z,91.97
2018-01-25T14:53:55.844Z,92.08
2018-01-25T14:56:23.277Z,91.85
2018-01-25T14:58:50.736Z,92.17
2018-01-25T15:01:18.150Z,92.04
2018-01-25T15:03:45.573Z,90.74
2018-01-25T15:06:12.996Z,91.55
2018-01-25T15:08:40.410Z,91.95
2018-01-25T15:11:07.817Z,92.46
2018-01-25T15:13:35.245Z,92.54
2018-01-25T15:16:02.709Z,92.91
2018-01-25T15:18:30.061Z,93.16
2018-01-25T15:20:57.509Z,93.31
2018-01-25T15:23:24.908Z,93.34
2018-01-25T15:25:57.993Z,93.59
2018-01-25T15:28:25.433Z,93.65
2018-01-25T15:30:52.848Z,93.63
2018-01-25T15:33:20.281Z,93.89
2018-01-25T15:35:47.702Z,94.06
2018-01-25T15:38:15.164Z,93.79
2018-01-25T15:40:42.574Z,94.12
2018-01-25T15:43:09.982Z,93.99
2018-01-25T15:45:37.400Z,94.30
2018-01-25T15:48:04.821Z,94.49
2018-01-25T15:50:32.249Z,94.43
2018-01-25T15:52:59.652Z,94.54
2018-01-25T15:55:27.073Z,94.68
2018-01-25T15:57:54.501Z,94.77
2018-01-25T16:00:21.947Z,94.85
2018-01-25T16:02:49.359Z,94.88
2018-01-25T16:05:16.888Z,94.89
2018-01-25T16:07:44.292Z,94.95
2018-01-25T16:10:11.728Z,94.74
2018-01-25T16:12:39.158Z,94.80
2018-01-25T16:15:06.585Z,94.93
2018-01-25T16:17:34.014Z,95.07
2018-01-25T16:20:01.417Z,95.15
2018-01-25T16:22:28.835Z,95.28
2018-01-25T16:24:56.274Z,95.25
2018-01-25T16:27:23.690Z,95.27
2018-01-25T16:29:51.094Z,95.27
2018-01-25T16:32:18.580Z,95.33
2018-01-25T16:34:45.993Z,95.36
2018-01-25T16:37:13.393Z,95.02
2018-01-25T16:39:40.810Z,95.10
2018-01-25T16:42:08.268Z,95.20
2018-01-25T16:44:35.678Z,95.14
2018-01-25T16:47:03.104Z,95.21
2018-01-25T16:49:30.505Z,95.32
2018-01-25T16:51:57.913Z,95.40
2018-01-25T16:54:25.347Z,95.40
2018-01-25T16:56:52.756Z,95.55
2018-01-25T16:59:20.159Z,95.60
2018-01-25T17:01:47.579Z,95.67
2018-01-25T17:04:14.987Z,95.72
2018-01-25T17:06:42.389Z,95.69
2018-01-25T17:09:09.813Z,95.49
2018-01-25T17:11:37.230Z,95.44
2018-01-25T17:14:04.638Z,95.46
2018-01-25T17:16:32.056Z,95.22
2018-01-25T17:18:59.480Z,95.21
2018-01-25T17:21:26.881Z,95.37
2018-01-25T17:23:54.308Z,95.49
2018-01-25T17:26:21.713Z,95.71
2018-01-25T17:28:49.120Z,95.62
2018-01-25T17:31:16.553Z,95.79
2018-01-25T17:33:43.970Z,95.91
2018-01-25T17:36:11.376Z,95.97
2018-01-25T17:38:38.794Z,95.86
2018-01-25T17:41:06.198Z,95.99
2018-01-25T17:43:33.611Z,96.12
2018-01-25T17:46:01.025Z,96.16
2018-01-25T17:48:28.442Z,96.24
2018-01-25T17:50:55.845Z,96.24
2018-01-25T17:53:23.281Z,95.92
2018-01-25T17:55:50.706Z,95.79
2018-01-25T17:58:18.114Z,95.99
2018-01-25T18:00:45.553Z,96.01
2018-01-25T18:03:12.961Z,95.91
2018-01-25T18:05:40.365Z,95.93
2018-01-25T18:08:07.789Z,96.10
2018-01-25T18:10:35.205Z,96.35
2018-01-25T18:13:02.624Z,96.38
2018-01-25T18:15:30.052Z,96.40
2018-01-25T18:17:57.472Z,96.52
2018-01-25T18:20:24.889Z,96.54
2018-01-25T18:22:52.309Z,96.72
2018-01-25T18:25:19.725Z,96.94
2018-01-25T18:27:47.138Z,97.10
2018-01-25T18:30:14.601Z,97.18
2018-01-25T18:32:42.002Z,97.18
2018-01-25T18:35:09.421Z,97.23
2018-01-25T18:37:36.849Z,97.21
2018-01-25T18:40:04.268Z,97.12
2018-01-25T18:42:31.681Z,97.10
2018-01-25T18:44:59.113Z,96.90
2018-01-25T18:47:26.525Z,96.71
2018-01-25T18:49:54.050Z,96.56
2018-01-25T18:52:21.466Z,96.67
2018-01-25T18:54:48.878Z,96.85
2018-01-25T18:57:16.304Z,96.70
2018-01-25T18:59:43.717Z,95.58
2018-01-25T19:02:11.121Z,94.51
2018-01-25T19:04:38.552Z,94.34
2018-01-25T19:07:06.005Z,93.40
2018-01-25T19:09:33.410Z,93.24
2018-01-25T19:12:00.820Z,93.28
2018-01-25T19:14:28.245Z,93.57
2018-01-25T19:16:55.656Z,93.92
2018-01-25T19:19:23.097Z,94.09
2018-01-25T19:21:50.532Z,94.55
2018-01-25T19:24:18.789Z,94.60
2018-01-25T19:26:46.184Z,94.57
2018-01-25T19:29:13.617Z,94.73
2018-01-25T19:31:41.076Z,94.97
2018-01-25T19:34:08.490Z,95.25
2018-01-25T19:36:35.922Z,95.25
2018-01-25T19:39:03.337Z,95.36
2018-01-25T19:41:30.761Z,95.35
2018-01-25T19:43:58.206Z,95.11
2018-01-25T19:46:25.613Z,95.28
2018-01-25T19:48:53.077Z,95.37
2018-01-25T19:51:26.265Z,95.42
2018-01-25T19:53:53.711Z,95.54
2018-01-25T19:56:21.114Z,95.43
2018-01-25T19:58:48.545Z,95.53
2018-01-25T20:01:15.957Z,95.57
2018-01-25T20:03:43.372Z,95.60
2018-01-25T20:06:10.797Z,95.25
2018-01-25T20:08:38.200Z,95.35
2018-01-25T20:11:05.620Z,95.76
2018-01-25T20:13:33.122Z,95.73
2018-01-25T20:16:00.556Z,95.74
2018-01-25T20:18:27.969Z,95.80
2018-01-25T20:20:55.395Z,95.84
2018-01-25T20:23:22.809Z,95.87
2018-01-25T20:25:50.213Z,95.88
2018-01-25T20:28:18.653Z,95.77
2018-01-25T20:30:52.329Z,95.85
2018-01-25T20:33:19.785Z,95.77
2018-01-25T20:35:47.198Z,95.71
2018-01-25T20:38:14.611Z,95.55
2018-01-25T20:40:42.025Z,95.55
2018-01-25T20:43:09.464Z,95.74
2018-01-25T20:45:36.860Z,95.65
2018-01-25T20:48:04.292Z,95.26
2018-01-25T20:50:31.732Z,95.23
2018-01-25T20:52:59.161Z,95.49
2018-01-25T20:55:26.585Z,95.57
2018-01-25T20:57:53.988Z,95.41
2018-01-25T21:00:21.405Z,95.40
2018-01-25T21:02:48.846Z,95.38
2018-01-25T21:05:16.262Z,95.58
2018-01-25T21:07:43.682Z,95.72
2018-01-25T21:10:11.105Z,95.71
2018-01-25T21:12:38.536Z,95.75
2018-01-25T21:15:05.961Z,95.93
2018-01-25T21:17:33.392Z,96.08
2018-01-25T21:20:00.808Z,96.17
2018-01-25T21:22:28.224Z,96.05
2018-01-25T21:24:55.656Z,96.09
2018-01-25T21:27:23.070Z,96.19
2018-01-25T21:29:50.651Z,96.36
2018-01-25T21:32:18.080Z,96.45
2018-01-25T21:34:45.480Z,96.48
2018-01-25T21:37:12.889Z,96.48
2018-01-25T21:39:40.332Z,96.55
2018-01-25T21:42:07.740Z,96.70
2018-01-25T21:44:35.160Z,96.72
2018-01-25T21:47:02.580Z,96.78
2018-01-25T21:49:29.997Z,96.72
2018-01-25T21:51:57.404Z,96.73
2018-01-25T21:54:24.833Z,96.73
2018-01-25T21:56:52.251Z,96.72
2018-01-25T21:59:19.659Z,96.75
2018-01-25T22:01:47.084Z,96.80
2018-01-25T22:04:14.498Z,96.79
2018-01-25T22:06:41.944Z,96.84
2018-01-25T22:09:09.369Z,96.88
2018-01-25T22:11:36.780Z,96.77
2018-01-25T22:14:04.193Z,96.90
2018-01-25T22:16:31.625Z,96.85
2018-01-25T22:18:59.054Z,97.00
2018-01-25T22:21:26.460Z,97.00
2018-01-25T22:23:53.880Z,96.99
2018-01-25T22:26:21.293Z,97.10
2018-01-25T22:28:48.703Z,97.12
2018-01-25T22:31:16.126Z,97.14
2018-01-25T22:33:43.533Z,97.21
2018-01-25T22:36:10.949Z,97.16
2018-01-25T22:38:38.392Z,97.12
2018-01-25T22:41:06.277Z,97.17
2018-01-25T22:43:33.691Z,97.08
2018-01-25T22:46:01.980Z,97.06
2018-01-25T22:48:30.349Z,96.89
2018-01-25T22:50:57.764Z,96.85
2018-01-25T22:53:25.269Z,96.95
2018-01-25T22:55:52.681Z,96.99
2018-01-25T22:58:20.137Z,97.05
2018-01-25T23:00:48.352Z,97.09
2018-01-25T23:03:15.769Z,97.03
2018-01-25T23:05:43.178Z,97.04
2018-01-25T23:08:10.604Z,97.08
2018-01-25T23:10:38.043Z,97.07
2018-01-25T23:13:05.460Z,97.09
2018-01-25T23:15:32.881Z,97.09
2018-01-25T23:18:00.304Z,96.85
2018-01-25T23:20:27.700Z,96.97
2018-01-25T23:22:55.127Z,97.04
2018-01-25T23:25:22.528Z,97.06
2018-01-25T23:27:49.937Z,97.10
2018-01-25T23:30:17.356Z,97.11
2018-01-25T23:32:44.777Z,97.05
2018-01-25T23:35:12.188Z,97.23
2018-01-25T23:37:39.608Z,97.24
2018-01-25T23:40:07.014Z,97.17
2018-01-25T23:42:34.420Z,97.14
2018-01-25T23:45:01.877Z,97.12
2018-01-25T23:47:29.288Z,97.19
2018-01-25T23:49:56.705Z,97.20
2018-01-25T23:52:24.137Z,97.18
2018-01-25T23:54:51.540Z,96.96
2018-01-25T23:57:18.953Z,96.95
2018-01-25T23:59:46.394Z,97.04
